Naples, Texas
Current Conditions -  °F | °C
As of 5:55 PM on Friday 19 Dec 2014 (Local Time) from KOSA Reporting Station
Overcast Overcast  
Wind Chill: 44°   Ceiling: 700
Heat Index: 46°   Visibility: 7mi
Dew Point: 45°   Wind: 5mph
Humidity: 95%   Direction: 20°NNE
Pressure: 30.2"   Gusts: NA
Location:  33.2°N, 94.68°W
Report Text: KOSA 192355Z AUTO 02004KT 7SM OVC007 08/07 A3020 RMK AO1 T00780070 10080 20075
Loading
Personal Weather Stations






























Interactive Weather Map New forecast layout! Learn more

10-Day Weather Forecast

Advertisements
Track Severe Weather on mobile